Nearby METAR Reports

 

KMQS - Coatesville, Pennsylvania, USA
Distance from station: ENE 6mi, 10km
Updated: Thu, 21-Feb-2019 10:15am EST
Mist, Clear
Mist, Clear
 Wind from W
Wind: W 6 mph , 9 km/h
Temperature: 36°F , 2°C
Wind Chill: 31°F , -1°C
Dew Point: 34°F , 1°C
Humidity: 93%
Barometer: 30.03 inHg , 1016.9 hPa
Summary: Mist
Clouds: Clear
Visibility: 3 miles , 5 km
2019/02/21 15:15 KMQS 211515Z AUTO 28005KT 3SM BR CLR 02/01 A3003 RMK AO2
KLNS - Lancaster, Pennsylvania, USA
Distance from station: NW 21mi, 33km
Updated: Thu, 21-Feb-2019 9:53am EST
Mist, Overcast
Mist, Overcast
 Wind from W
Wind: W 8 mph , 13 km/h
Temperature: 36°F , 2°C
Wind Chill: 30°F , -1°C
Dew Point: 32°F , 0°C
Humidity: 87%
Barometer: 30.03 inHg , 1016.9 hPa
Summary: Mist
Clouds: Overcast
Visibility: 2 1/2 miles , 4 km
Cloud details: Overcast 500 ft
2019/02/21 14:53 KLNS 211453Z 28007KT 2 1/2SM BR OVC005 02/00 A3003 RMK AO2 SLP172 I3004 T00170000 51011
 
KILG - Wilmington, Delaware, USA
Distance from station: SE 28mi, 45km
Updated: Thu, 21-Feb-2019 9:51am EST
Mist, Clear
Mist, Clear
 Wind from SW
Wind: SW 3 mph , 6 km/h
Temperature: 37°F , 3°C
Dew Point: 34°F , 1°C
Humidity: 87%
Barometer: 30.04 inHg , 1017.3 hPa
Summary: Mist
Clouds: Clear
Visibility: 6 miles , 10 km
2019/02/21 14:51 KILG 211451Z 22003KT 6SM BR CLR 03/01 A3004 RMK AO2 SLP174 T00330011 53016
KRDG - Reading, Pennsylvania, USA
Distance from station: N 29mi, 47km
Updated: Thu, 21-Feb-2019 10:26am EST
Mist, Few clouds
Mist, Few clouds
 Wind from calm
Wind: Calm
Temperature: 37°F , 3°C
Dew Point: 37°F , 3°C
Humidity: 100%
Barometer: 30.01 inHg , 1016.3 hPa
Summary: Mist
Clouds: Few Clouds
Visibility: 10 miles , 16 km
Cloud details: Few Clouds 2000 ft
2019/02/21 15:26 KRDG 211526Z 00000KT 10SM BR FEW020 03/03 A3001 RMK AO2 T00330028
 
KPTW - Pottstown, Pennsylvania, USA
Distance from station: NE 30mi, 48km
Updated: Thu, 21-Feb-2019 9:54am EST
Mist, Mostly cloudy
Mist, Mostly cloudy
 Wind from varies
Wind: varies 5 mph , 7 km/h
Temperature: 36°F , 2°C
Wind Chill: 32°F , 0°C
Dew Point: 34°F , 1°C
Humidity: 93%
Barometer: 30.03 inHg , 1016.9 hPa
Summary: Mist
Clouds: Mostly cloudy
Visibility: 3 miles , 5 km
Cloud details: Mostly cloudy 700 ft
2019/02/21 14:54 KPTW 211454Z AUTO VRB04KT 3SM BR BKN007 02/01 A3003 RMK AO2 CIG 005V010 SLP167 T00220011 53016